Time;durP1;ratioP1;P1;durP2;ratioP2;P2;SDS_P1;SDS_P2;PMS_P1;PMS_P2;Temp;Humidity;BMP_temperature;BMP_pressure;BME280_temperature;BME280_humidity;BME280_pressure;Samples;Min_cycle;Max_cycle;Signal;HPM_P1;HPM_P2
2022/02/23 00:00:11;;;;;;;;;6.00;5.00;;;;;10.19;85.91;101759.66;4938241;28;45810;-72
2022/02/23 00:02:36;;;;;;;;;7.00;6.00;;;;;10.14;84.85;101755.38;4938840;28;45701;-69
2022/02/23 00:05:02;;;;;;;;;10.75;6.00;;;;;10.03;85.68;101751.19;4938807;28;45400;-73
2022/02/23 00:07:27;;;;;;;;;11.25;8.25;;;;;10.02;85.55;101749.47;4940238;28;45550;-71
2022/02/23 00:09:53;;;;;;;;;7.25;7.00;;;;;9.97;86.45;101760.94;4938182;28;45278;-70
2022/02/23 00:12:19;;;;;;;;;10.50;6.00;;;;;9.89;86.69;101759.31;4935847;28;46966;-67
2022/02/23 00:14:44;;;;;;;;;9.50;6.50;;;;;9.85;87.04;101757.66;4937611;28;45816;-66
2022/02/23 00:17:10;;;;;;;;;7.75;5.75;;;;;9.82;87.18;101759.47;4937541;28;45344;-64
2022/02/23 00:19:35;;;;;;;;;10.50;5.75;;;;;9.75;87.40;101762.22;4935492;28;45457;-74
2022/02/23 00:22:01;;;;;;;;;10.25;8.75;;;;;9.71;87.28;101763.16;4937385;28;45380;-68
2022/02/23 00:24:26;;;;;;;;;10.50;6.75;;;;;9.66;87.21;101757.13;4937707;28;45346;-73
2022/02/23 00:26:51;;;;;;;;;11.75;9.75;;;;;9.61;87.68;101759.81;4937440;28;45519;-70
2022/02/23 00:29:17;;;;;;;;;12.25;7.00;;;;;9.56;88.05;101760.81;4937412;28;45268;-69
2022/02/23 00:31:42;;;;;;;;;7.00;6.00;;;;;9.55;88.51;101764.31;4936909;28;46246;-69
2022/02/23 00:34:08;;;;;;;;;11.25;5.75;;;;;9.50;88.34;101753.88;4937594;28;45333;-74
2022/02/23 00:36:33;;;;;;;;;7.25;6.00;;;;;9.46;88.31;101758.31;4937142;28;45168;-72
2022/02/23 00:38:59;;;;;;;;;7.50;5.25;;;;;9.42;88.53;101759.25;4937353;28;45521;-72
2022/02/23 00:41:25;;;;;;;;;10.75;6.00;;;;;9.41;88.58;101759.28;4936366;28;45616;-73
2022/02/23 00:43:50;;;;;;;;;8.75;5.50;;;;;9.34;88.63;101756.78;4937051;28;45419;-72
2022/02/23 00:46:16;;;;;;;;;8.50;6.00;;;;;9.33;88.95;101757.66;4936975;28;45461;-69
2022/02/23 00:48:41;;;;;;;;;7.50;5.50;;;;;9.30;88.76;101755.09;4937076;28;45234;-70
2022/02/23 00:51:06;;;;;;;;;9.25;6.75;;;;;9.25;89.38;101750.78;4936648;28;46495;-68
2022/02/23 00:53:32;;;;;;;;;10.00;6.00;;;;;9.24;89.35;101755.19;4936805;28;45532;-59
2022/02/23 00:55:57;;;;;;;;;8.75;5.50;;;;;9.22;89.25;101759.59;4937010;28;45330;-65
2022/02/23 00:58:23;;;;;;;;;14.50;7.00;;;;;9.18;89.75;101758.75;4936997;28;45806;-62
2022/02/23 01:00:48;;;;;;;;;5.25;5.25;;;;;9.17;89.46;101764.91;4936799;28;45310;-73
2022/02/23 01:03:13;;;;;;;;;13.25;8.25;;;;;9.16;90.05;101767.56;4936929;28;45380;-69
2022/02/23 01:05:40;;;;;;;;;8.75;6.00;;;;;9.14;90.11;101772.81;4937285;28;45380;-63
2022/02/23 01:08:05;;;;;;;;;8.00;6.00;;;;;9.16;90.29;101778.91;4937219;28;45326;-62
2022/02/23 01:10:31;;;;;;;;;8.00;6.75;;;;;9.16;90.42;101771.03;4937365;28;45438;-70
2022/02/23 01:12:56;;;;;;;;;5.50;5.50;;;;;9.12;90.52;101771.97;4937106;28;45336;-68
2022/02/23 01:15:22;;;;;;;;;13.25;8.00;;;;;9.15;90.44;101773.69;4937210;28;45625;-64
2022/02/23 01:17:47;;;;;;;;;6.25;5.00;;;;;9.11;90.28;101767.63;4936868;28;45495;-72
2022/02/23 01:20:13;;;;;;;;;7.75;5.25;;;;;9.10;90.49;101781.63;4936462;28;45471;-73
2022/02/23 01:22:38;;;;;;;;;11.25;7.00;;;;;9.08;90.43;101778.16;4936713;28;45398;-74
2022/02/23 01:25:04;;;;;;;;;11.25;5.00;;;;;9.04;90.59;101777.34;4936975;28;45245;-69
2022/02/23 01:27:30;;;;;;;;;8.50;5.75;;;;;9.04;90.91;101785.22;4937552;28;45567;-74
2022/02/23 01:29:56;;;;;;;;;8.50;5.00;;;;;8.98;90.64;101776.56;4937441;28;47452;-74
2022/02/23 01:32:22;;;;;;;;;7.00;6.00;;;;;8.97;90.78;101778.31;4939245;28;45635;-73
2022/02/23 01:34:47;;;;;;;;;11.50;6.50;;;;;8.98;91.08;101782.66;4940319;28;45299;-74
2022/02/23 01:37:13;;;;;;;;;8.50;6.00;;;;;8.94;91.07;101782.75;4940300;28;45323;-74
2022/02/23 01:39:39;;;;;;;;;11.00;6.50;;;;;8.94;91.35;101778.34;4938203;28;47829;-70
2022/02/23 01:42:05;;;;;;;;;14.25;7.00;;;;;8.90;91.08;101779.28;4940848;28;45641;-75
2022/02/23 01:44:31;;;;;;;;;6.25;5.00;;;;;8.84;91.49;101777.63;4944308;28;45363;-69
2022/02/23 01:46:56;;;;;;;;;11.75;5.75;;;;;8.83;91.17;101783.75;4946112;28;45328;-74
2022/02/23 01:49:23;;;;;;;;;9.75;5.50;;;;;8.81;91.14;101793.41;4943880;28;45468;-72
2022/02/23 01:51:49;;;;;;;;;12.00;6.25;;;;;8.74;91.44;101791.75;4942033;28;45344;-72
2022/02/23 01:54:14;;;;;;;;;8.00;5.50;;;;;8.75;91.70;101796.97;4940055;28;45302;-75
2022/02/23 01:56:40;;;;;;;;;7.00;5.25;;;;;8.70;91.30;101788.28;4939996;28;45540;-73
2022/02/23 01:59:05;;;;;;;;;9.25;6.00;;;;;8.70;91.71;101796.16;4939656;28;45939;-74
2022/02/23 02:01:30;;;;;;;;;11.00;7.25;;;;;8.68;91.93;101795.31;4938075;28;45325;-68
2022/02/23 02:03:56;;;;;;;;;6.75;6.00;;;;;8.65;91.42;101797.97;4938093;28;45635;-71
2022/02/23 02:06:21;;;;;;;;;9.50;6.75;;;;;8.54;92.10;101790.25;4939374;28;45537;-70
2022/02/23 02:08:47;;;;;;;;;11.00;8.50;;;;;8.48;91.95;101783.28;4939305;28;45494;-74
2022/02/23 02:11:12;;;;;;;;;8.00;5.00;;;;;8.56;92.06;101804.22;4939480;28;45350;-74
2022/02/23 02:13:37;;;;;;;;;9.50;5.00;;;;;8.54;92.13;101821.72;4939556;28;45708;-67
2022/02/23 02:16:03;;;;;;;;;9.00;6.25;;;;;8.55;91.89;101805.09;4939928;28;45382;-68
2022/02/23 02:18:28;;;;;;;;;4.00;3.00;;;;;8.54;92.17;101802.50;4938908;28;45679;-74
2022/02/23 02:20:53;;;;;;;;;10.00;5.25;;;;;8.51;92.55;101808.66;4938994;28;45279;-73
2022/02/23 02:23:19;;;;;;;;;8.50;7.75;;;;;8.50;92.32;101822.66;4938984;28;45433;-71
2022/02/23 02:25:44;;;;;;;;;8.00;5.00;;;;;8.44;92.14;101818.31;4939213;28;45537;-71
2022/02/23 02:28:10;;;;;;;;;11.00;7.00;;;;;8.44;92.19;101812.16;4938666;28;45570;-68
2022/02/23 02:30:36;;;;;;;;;5.50;4.25;;;;;8.45;92.31;101814.78;4939114;28;45421;-75
2022/02/23 02:33:01;;;;;;;;;8.50;6.00;;;;;8.40;92.38;101808.72;4939171;28;45248;-72
2022/02/23 02:35:27;;;;;;;;;10.75;6.00;;;;;8.39;92.64;101808.72;4939550;28;45618;-74
2022/02/23 02:37:52;;;;;;;;;8.50;6.75;;;;;8.41;92.43;101817.44;4939450;28;47062;-74
2022/02/23 02:40:18;;;;;;;;;6.00;5.00;;;;;8.34;92.78;101812.28;4939002;28;45456;-74
2022/02/23 02:42:43;;;;;;;;;9.50;3.00;;;;;8.31;93.12;101812.31;4938135;28;45355;-72
2022/02/23 02:45:09;;;;;;;;;9.25;4.75;;;;;8.33;92.55;101813.16;4939231;28;45348;-62
2022/02/23 02:47:34;;;;;;;;;5.50;3.75;;;;;8.28;92.72;101814.97;4938743;28;45415;-74
2022/02/23 02:50:00;;;;;;;;;7.75;3.25;;;;;8.28;92.98;101812.34;4938582;28;45228;-73
2022/02/23 02:52:25;;;;;;;;;8.75;6.50;;;;;8.26;92.97;101815.88;4938485;28;45218;-73
2022/02/23 02:54:51;;;;;;;;;7.25;3.75;;;;;8.22;93.25;101807.16;4938793;28;45348;-65
2022/02/23 02:57:16;;;;;;;;;6.00;5.00;;;;;8.21;93.31;101808.06;4938353;28;45543;-69
2022/02/23 02:59:42;;;;;;;;;8.25;6.00;;;;;8.15;93.44;101795.91;4938512;28;45343;-71
2022/02/23 03:02:07;;;;;;;;;7.00;6.25;;;;;8.17;93.27;101807.22;4938639;28;45411;-73
2022/02/23 03:04:32;;;;;;;;;7.50;5.25;;;;;8.14;93.49;101812.50;4938572;28;45663;-74
2022/02/23 03:06:58;;;;;;;;;12.50;8.25;;;;;8.12;94.04;101819.53;4939165;28;46116;-67
2022/02/23 03:09:23;;;;;;;;;12.50;7.00;;;;;8.12;94.15;101813.41;4938044;28;45422;-66
2022/02/23 03:11:49;;;;;;;;;11.25;8.75;;;;;8.07;93.68;101816.06;4938163;28;45385;-66
2022/02/23 03:14:14;;;;;;;;;12.25;6.00;;;;;8.08;94.00;101817.81;4938527;28;45566;-68
2022/02/23 03:16:39;;;;;;;;;8.00;5.75;;;;;8.07;93.93;101823.06;4938347;28;45488;-72
2022/02/23 03:19:05;;;;;;;;;5.75;4.00;;;;;8.04;93.66;101819.59;4938738;28;45415;-72
2022/02/23 03:21:32;;;;;;;;;8.50;5.00;;;;;8.02;93.90;101821.34;4938398;28;45359;-72
2022/02/23 03:23:57;;;;;;;;;9.00;4.00;;;;;8.00;94.17;101820.50;4943923;28;45345;-74
2022/02/23 03:26:23;;;;;;;;;10.00;5.50;;;;;7.98;94.02;101822.25;4941804;28;46748;-70
2022/02/23 03:28:48;;;;;;;;;7.00;6.25;;;;;7.97;94.55;101814.44;4941232;28;45201;-72
2022/02/23 03:31:14;;;;;;;;;7.50;5.00;;;;;7.93;94.74;101818.81;4938783;28;45240;-74
2022/02/23 03:33:42;;;;;;;;;6.50;4.75;;;;;7.88;94.63;101816.22;4937462;28;45574;-72
2022/02/23 03:36:10;;;;;;;;;13.00;6.00;;;;;7.88;94.93;101812.75;4936403;28;46135;-72
2022/02/23 03:38:36;;;;;;;;;11.50;7.00;;;;;7.85;94.99;101810.16;4938383;28;45400;-70
2022/02/23 03:41:01;;;;;;;;;8.50;4.50;;;;;7.84;94.95;101832.84;4938302;28;45449;-66
2022/02/23 03:43:26;;;;;;;;;8.50;5.00;;;;;7.79;94.56;101820.69;4937906;28;45444;-74
2022/02/23 03:45:52;;;;;;;;;8.25;6.00;;;;;7.80;95.09;101825.06;4937485;28;46605;-72
2022/02/23 03:48:17;;;;;;;;;10.00;6.50;;;;;7.77;94.36;101823.31;4937464;28;45254;-72
2022/02/23 03:50:42;;;;;;;;;12.25;5.75;;;;;7.72;94.30;101815.50;4937899;28;45438;-66
2022/02/23 03:53:08;;;;;;;;;8.50;5.25;;;;;7.73;95.39;101825.09;4938229;28;45438;-69
2022/02/23 03:55:35;;;;;;;;;9.50;8.00;;;;;7.70;94.89;101816.38;4937546;28;46013;-70
2022/02/23 03:58:00;;;;;;;;;8.50;5.00;;;;;7.66;94.70;101818.19;4937457;28;45259;-72
2022/02/23 04:00:26;;;;;;;;;9.75;6.00;;;;;7.69;95.11;101819.88;4937745;28;45233;-74
2022/02/23 04:02:51;;;;;;;;;10.25;3.75;;;;;7.67;94.99;101817.28;4937732;28;45707;-74
2022/02/23 04:05:17;;;;;;;;;10.00;5.50;;;;;7.63;94.95;101817.31;4937662;28;45512;-72
2022/02/23 04:07:42;;;;;;;;;8.75;5.50;;;;;7.57;95.67;101813.03;4937679;28;45450;-72
2022/02/23 04:10:08;;;;;;;;;9.50;4.25;;;;;7.60;95.62;101821.69;4937552;28;45308;-65
2022/02/23 04:12:33;;;;;;;;;12.25;7.50;;;;;7.60;95.77;101820.84;4937574;28;45612;-69
2022/02/23 04:15:00;;;;;;;;;11.25;6.50;;;;;7.60;95.44;101820.84;4937164;28;46340;-71
2022/02/23 04:17:25;;;;;;;;;8.50;5.50;;;;;7.54;95.62;101818.28;4935955;28;45355;-71
2022/02/23 04:19:50;;;;;;;;;6.25;4.75;;;;;7.54;95.17;101818.28;4937096;28;45370;-72
2022/02/23 04:22:16;;;;;;;;;10.25;4.75;;;;;7.49;95.13;101809.59;4937651;28;45606;-74
2022/02/23 04:24:41;;;;;;;;;9.50;5.00;;;;;7.50;96.26;101813.94;4937690;28;45380;-72
2022/02/23 04:27:07;;;;;;;;;12.00;8.50;;;;;7.50;95.49;101811.31;4937276;28;45418;-73
2022/02/23 04:29:33;;;;;;;;;10.25;4.75;;;;;7.45;96.34;101806.09;4937275;28;45382;-71
2022/02/23 04:31:59;;;;;;;;;6.50;6.00;;;;;7.47;95.89;101809.59;4937345;28;45274;-72
2022/02/23 04:34:24;;;;;;;;;9.75;6.00;;;;;7.45;95.69;101806.09;4936947;28;46468;-69
2022/02/23 04:36:50;;;;;;;;;13.00;8.00;;;;;7.43;96.64;101810.50;4936965;28;45325;-72
2022/02/23 04:39:16;;;;;;;;;10.50;6.75;;;;;7.40;95.80;101816.59;4936921;28;45224;-69
2022/02/23 04:41:41;;;;;;;;;18.25;8.00;;;;;7.41;96.32;101814.88;4937097;28;45247;-68
2022/02/23 04:44:07;;;;;;;;;14.75;7.25;;;;;7.39;96.41;101814.88;4935763;28;47447;-75
2022/02/23 04:46:34;;;;;;;;;11.25;6.25;;;;;7.35;96.79;101810.53;4936967;28;45361;-69
2022/02/23 04:49:00;;;;;;;;;6.50;5.25;;;;;7.38;96.66;101820.97;4937057;28;45405;-72
2022/02/23 04:51:28;;;;;;;;;9.50;7.00;;;;;7.38;96.17;101822.75;4937211;28;45311;-67
2022/02/23 04:53:53;;;;;;;;;11.75;7.50;;;;;7.36;96.61;101817.50;4936685;28;45283;-65
2022/02/23 04:56:19;;;;;;;;;15.25;6.25;;;;;7.36;96.79;101811.41;4937423;28;45292;-68
2022/02/23 04:58:44;;;;;;;;;9.50;7.75;;;;;7.34;96.53;101816.66;4937474;28;45442;-69
2022/02/23 05:01:11;;;;;;;;;12.00;6.25;;;;;7.30;96.29;101817.53;4937252;28;45353;-72
2022/02/23 05:03:37;;;;;;;;;17.25;8.25;;;;;7.31;96.72;101819.28;4938194;28;45196;-68
2022/02/23 05:06:02;;;;;;;;;5.50;5.50;;;;;7.26;96.77;101816.72;4943493;28;45444;-69
2022/02/23 05:08:28;;;;;;;;;10.75;6.50;;;;;7.23;96.69;101811.50;4944900;28;45397;-73
2022/02/23 05:10:57;;;;;;;;;16.25;8.00;;;;;7.26;97.00;101826.31;4942622;28;45514;-70
2022/02/23 05:13:26;;;;;;;;;11.25;7.75;;;;;7.25;96.64;101827.19;4939601;28;47880;-71
2022/02/23 05:15:57;;;;;;;;;13.50;7.75;;;;;7.23;97.35;101821.09;4940451;28;45385;-70
2022/02/23 05:18:23;;;;;;;;;7.50;6.75;;;;;7.21;96.63;101813.25;4939749;28;45263;-73
2022/02/23 05:20:49;;;;;;;;;12.25;7.00;;;;;7.21;97.04;101818.50;4940044;28;45539;-72
2022/02/23 05:23:16;;;;;;;;;6.25;4.75;;;;;7.13;96.91;101805.44;4940709;28;46228;-70
2022/02/23 05:25:41;;;;;;;;;11.00;8.00;;;;;7.18;97.08;101812.41;4940741;28;45351;-73
2022/02/23 05:28:07;;;;;;;;;9.00;7.00;;;;;7.17;96.83;101819.38;4940310;28;45390;-70
2022/02/23 05:30:32;;;;;;;;;11.75;8.00;;;;;7.14;97.35;101820.25;4940985;28;45243;-73
2022/02/23 05:32:58;;;;;;;;;7.50;5.75;;;;;7.15;97.69;101826.38;4941099;28;46189;-73
2022/02/23 05:35:23;;;;;;;;;10.75;6.50;;;;;7.11;97.19;101820.28;4940402;28;45455;-74
2022/02/23 05:37:49;;;;;;;;;9.75;8.25;;;;;7.12;97.25;101829.00;4939897;28;45366;-75
2022/02/23 05:40:15;;;;;;;;;13.00;8.00;;;;;7.11;97.50;101828.13;4940440;28;45562;-74
2022/02/23 05:42:40;;;;;;;;;12.75;7.50;;;;;7.10;97.48;101826.41;4939641;28;46248;-75
2022/02/23 05:45:06;;;;;;;;;13.50;8.75;;;;;7.09;97.59;101834.28;4940251;28;45367;-76
2022/02/23 05:47:32;;;;;;;;;12.75;7.75;;;;;7.04;98.01;101830.81;4939660;28;45215;-71
2022/02/23 05:49:58;;;;;;;;;12.25;7.25;;;;;7.08;97.51;101833.38;4939044;28;45285;-71
2022/02/23 05:52:23;;;;;;;;;14.50;8.00;;;;;7.08;98.15;101833.38;4939405;28;46437;-73
2022/02/23 05:54:49;;;;;;;;;12.25;7.50;;;;;7.06;97.82;101834.28;4939125;28;45333;-72
2022/02/23 05:57:15;;;;;;;;;12.25;8.00;;;;;7.05;98.20;101838.63;4938317;28;45347;-71
2022/02/23 05:59:41;;;;;;;;;13.25;7.50;;;;;7.06;98.46;101834.28;4939587;28;45540;-74
2022/02/23 06:02:06;;;;;;;;;13.00;8.00;;;;;7.04;97.87;101833.41;4938981;28;46322;-71
2022/02/23 06:04:34;;;;;;;;;8.00;7.75;;;;;7.06;98.03;101848.22;4939063;28;45501;-70
2022/02/23 06:06:59;;;;;;;;;16.50;11.00;;;;;7.04;98.42;101842.13;4939091;28;45322;-73
2022/02/23 06:09:25;;;;;;;;;12.75;9.00;;;;;7.02;97.84;101849.13;4939277;28;45369;-70
2022/02/23 06:11:51;;;;;;;;;15.75;7.50;;;;;7.03;99.03;101836.91;4938886;28;45920;-67
2022/02/23 06:14:16;;;;;;;;;13.25;9.00;;;;;7.04;98.14;101844.75;4940039;28;45283;-68
2022/02/23 06:16:42;;;;;;;;;12.50;8.00;;;;;7.01;98.53;101842.16;4939088;28;45197;-71
2022/02/23 06:19:07;;;;;;;;;11.00;8.25;;;;;7.03;98.48;101840.38;4939160;28;45577;-73
2022/02/23 06:21:33;;;;;;;;;15.25;7.25;;;;;7.03;98.49;101840.38;4938718;28;46384;-72
2022/02/23 06:23:58;;;;;;;;;13.25;8.00;;;;;7.03;98.87;101850.00;4921571;28;45290;-71
2022/02/23 06:26:24;;;;;;;;;16.25;10.25;;;;;7.00;98.82;101850.88;4939028;28;45296;-74
2022/02/23 06:28:50;;;;;;;;;9.75;6.75;;;;;6.99;98.67;101841.28;4939447;28;45822;-75
2022/02/23 06:31:16;;;;;;;;;16.00;10.50;;;;;6.99;98.68;101855.25;4938815;28;45963;-72
2022/02/23 06:33:43;;;;;;;;;21.50;9.75;;;;;7.01;99.45;101857.84;4938594;28;45330;-68
2022/02/23 06:36:09;;;;;;;;;14.75;9.25;;;;;7.00;98.97;101853.47;4938748;28;45355;-69
2022/02/23 06:38:40;;;;;;;;;11.75;7.50;;;;;6.98;98.79;101860.47;4938833;28;45310;-67
2022/02/23 06:41:12;;;;;;;;;10.25;9.00;;;;;6.96;98.97;101862.22;4938539;28;45365;-65
2022/02/23 06:43:38;;;;;;;;;14.25;8.50;;;;;6.94;98.53;101869.22;4938040;28;45210;-68
2022/02/23 06:46:04;;;;;;;;;12.00;9.00;;;;;6.94;98.82;101870.09;4940523;28;45280;-64
2022/02/23 06:48:29;;;;;;;;;11.25;7.00;;;;;6.93;98.48;101868.34;4944048;28;45477;-63
2022/02/23 06:50:55;;;;;;;;;13.00;11.00;;;;;6.91;98.56;101869.22;4944567;28;46670;-70
2022/02/23 06:53:21;;;;;;;;;11.50;9.50;;;;;6.96;98.67;101880.53;4941676;28;45340;-73
2022/02/23 06:55:47;;;;;;;;;8.75;7.25;;;;;6.93;99.00;101865.75;4939370;28;45530;-74
2022/02/23 06:58:14;;;;;;;;;16.50;11.00;;;;;6.97;98.63;101877.94;4938895;28;45404;-73
2022/02/23 07:00:40;;;;;;;;;12.50;9.75;;;;;6.98;98.72;101882.28;4938125;28;45487;-71
2022/02/23 07:03:07;;;;;;;;;16.25;11.00;;;;;6.99;98.87;101872.69;4938064;28;45400;-74
2022/02/23 07:05:33;;;;;;;;;14.00;11.25;;;;;6.97;98.70;101883.16;4938407;28;45262;-70
2022/02/23 07:08:02;;;;;;;;;19.50;14.50;;;;;6.99;98.82;101878.78;4938736;28;45613;-74
2022/02/23 07:10:28;;;;;;;;;15.75;10.50;;;;;7.04;98.84;101880.53;4938044;28;45517;-71
2022/02/23 07:12:56;;;;;;;;;18.75;12.50;;;;;7.07;98.90;101888.34;4938189;28;45314;-70
2022/02/23 07:15:24;;;;;;;;;17.50;13.25;;;;;7.10;99.27;101878.72;4938977;28;45305;-66
2022/02/23 07:17:50;;;;;;;;;18.50;12.25;;;;;7.14;99.10;101882.22;4938209;28;45254;-70
2022/02/23 07:20:16;;;;;;;;;17.75;12.75;;;;;7.16;98.70;101886.53;4938714;28;45295;-65
2022/02/23 07:22:42;;;;;;;;;22.00;15.50;;;;;7.25;99.43;101896.09;4938903;28;45234;-72
2022/02/23 07:25:09;;;;;;;;;23.25;15.00;;;;;7.35;98.97;101893.44;4939402;28;45473;-71
2022/02/23 07:27:35;;;;;;;;;21.00;14.00;;;;;7.49;98.70;101894.22;4938227;28;45313;-67
2022/02/23 07:30:04;;;;;;;;;15.50;13.50;;;;;7.63;98.88;101896.78;4938843;28;46557;-77
2022/02/23 07:32:31;;;;;;;;;17.00;14.00;;;;;7.73;98.20;101895.81;4938146;28;45228;-76
2022/02/23 07:34:58;;;;;;;;;13.75;12.50;;;;;7.79;97.05;101886.19;4936926;28;45351;-59
2022/02/23 07:37:23;;;;;;;;;16.25;12.75;;;;;7.84;97.14;101887.88;4937327;28;45466;-61
2022/02/23 07:39:55;;;;;;;;;20.00;15.50;;;;;7.90;97.05;101898.28;4937606;28;46159;-66
2022/02/23 07:42:20;;;;;;;;;26.25;20.75;;;;;7.98;96.78;101884.28;4935083;28;45306;-79
2022/02/23 07:44:47;;;;;;;;;18.75;17.25;;;;;8.03;96.03;101883.34;4934694;28;45707;-64
2022/02/23 07:47:14;;;;;;;;;32.00;23.00;;;;;8.14;95.58;101890.25;4936408;28;45562;-65
2022/02/23 07:49:39;;;;;;;;;27.00;19.25;;;;;8.19;95.81;101883.22;4936885;28;45435;-66
2022/02/23 07:52:05;;;;;;;;;25.75;20.25;;;;;8.29;95.03;101891.88;4937644;28;45426;-69
2022/02/23 07:54:30;;;;;;;;;24.50;22.25;;;;;8.42;95.01;101883.00;4938562;28;45375;-63
2022/02/23 07:56:56;;;;;;;;;27.00;19.00;;;;;8.63;94.77;101883.69;4936410;28;45506;-66
2022/02/23 07:59:21;;;;;;;;;19.00;15.25;;;;;8.88;94.20;101900.03;4938918;28;46368;-66
2022/02/23 08:01:48;;;;;;;;;23.75;17.00;;;;;9.04;93.37;101895.47;4938193;28;45406;-75
2022/02/23 08:04:14;;;;;;;;;20.00;16.50;;;;;9.15;93.12;101897.09;4937425;28;45283;-67
2022/02/23 08:06:40;;;;;;;;;24.75;17.00;;;;;9.23;92.33;101895.22;4937566;28;45220;-63
2022/02/23 08:09:08;;;;;;;;;23.50;19.75;;;;;9.25;91.64;101887.31;4936943;28;45303;-60
2022/02/23 08:11:36;;;;;;;;;22.00;17.75;;;;;9.32;91.13;101889.84;4935849;28;45349;-64
2022/02/23 08:14:04;;;;;;;;;14.50;13.25;;;;;9.33;90.99;101888.94;4936839;28;45390;-68
2022/02/23 08:19:36;;;;;;;;;21.00;20.00;;;;;9.38;91.34;101888.88;4937040;28;45227;-72
2022/02/23 08:22:10;;;;;;;;;26.25;18.00;;;;;9.47;90.49;101887.88;4936929;28;45398;-69
2022/02/23 08:24:39;;;;;;;;;23.00;18.50;;;;;9.54;89.96;101892.16;4937147;28;45370;-66
2022/02/23 08:27:07;;;;;;;;;24.50;22.75;;;;;9.65;89.89;101898.13;4937112;28;45397;-68
2022/02/23 08:29:34;;;;;;;;;26.00;23.50;;;;;9.74;89.22;101888.34;4937138;28;45459;-70
2022/02/23 08:32:00;;;;;;;;;32.25;19.00;;;;;9.91;88.90;101903.88;4937357;28;45460;-72
2022/02/23 08:34:26;;;;;;;;;27.50;21.25;;;;;10.03;88.18;101892.25;4935791;28;45402;-63
2022/02/23 08:36:52;;;;;;;;;32.75;20.50;;;;;10.16;88.16;101890.31;4937288;28;45313;-69
2022/02/23 08:39:17;;;;;;;;;21.50;17.75;;;;;10.24;87.30;101893.66;4935696;28;46289;-64
2022/02/23 08:41:44;;;;;;;;;30.67;23.00;;;;;10.28;86.33;101892.72;4936639;28;45306;-70
2022/02/23 08:44:11;;;;;;;;;24.75;20.00;;;;;10.30;86.27;101903.22;4936923;28;45473;-69
2022/02/23 08:46:37;;;;;;;;;26.00;21.75;;;;;10.30;86.14;101901.44;4937389;28;45572;-73
2022/02/23 08:49:04;;;;;;;;;29.00;23.00;;;;;10.28;85.67;101900.59;4936922;28;46409;-71
2022/02/23 08:51:30;;;;;;;;;29.25;20.00;;;;;10.29;86.03;101912.84;4936535;28;45264;-70
2022/02/23 08:53:56;;;;;;;;;28.50;22.50;;;;;10.32;85.88;101914.59;4936971;28;45314;-67
2022/02/23 08:56:23;;;;;;;;;34.00;27.25;;;;;10.29;85.07;101912.84;4937186;28;45403;-66
2022/02/23 08:58:49;;;;;;;;;32.75;29.25;;;;;10.27;85.18;101906.75;4936643;28;45465;-66
2022/02/23 09:01:14;;;;;;;;;32.00;26.00;;;;;10.25;84.32;101903.28;4936392;28;45795;-68
2022/02/23 09:03:40;;;;;;;;;37.00;29.00;;;;;10.25;83.74;101908.56;4936472;28;45843;-70
2022/02/23 09:06:06;;;;;;;;;30.50;25.00;;;;;10.17;83.86;101897.28;4936471;28;45663;-73
2022/02/23 09:08:32;;;;;;;;;30.75;25.00;;;;;10.14;84.24;101902.63;4936975;28;45457;-67
2022/02/23 09:10:57;;;;;;;;;35.50;26.50;;;;;10.13;84.46;101904.38;4937251;28;45876;-69
2022/02/23 09:13:23;;;;;;;;;34.50;26.00;;;;;10.15;84.33;101901.72;4936890;28;45771;-67
2022/02/23 09:15:48;;;;;;;;;34.00;28.00;;;;;10.21;84.41;101897.22;4936305;28;45491;-69
2022/02/23 09:18:14;;;;;;;;;32.25;29.25;;;;;10.22;83.73;101896.34;4936257;28;45430;-65
2022/02/23 09:20:39;;;;;;;;;25.00;19.75;;;;;10.23;84.24;101899.81;4936302;28;45354;-69
2022/02/23 09:23:04;;;;;;;;;35.75;28.75;;;;;10.25;84.48;101895.41;4936489;28;45524;-72
2022/02/23 09:25:30;;;;;;;;;33.25;24.50;;;;;10.32;83.81;101891.75;4936502;28;45591;-69
2022/02/23 09:27:55;;;;;;;;;28.50;25.50;;;;;10.30;83.60;101890.94;4936453;28;46370;-69
2022/02/23 09:30:21;;;;;;;;;33.25;25.50;;;;;10.31;82.93;101892.66;4936442;28;45304;-64
2022/02/23 09:32:49;;;;;;;;;29.50;23.25;;;;;10.29;83.16;101886.56;4936574;28;45306;-67
2022/02/23 09:35:16;;;;;;;;;31.75;27.25;;;;;10.32;83.31;101889.13;4936103;28;45276;-65
2022/02/23 09:37:42;;;;;;;;;26.50;23.75;;;;;10.33;83.34;101879.50;4936086;28;45417;-71
2022/02/23 09:40:12;;;;;;;;;35.50;25.50;;;;;10.38;83.60;101882.91;4936339;28;45332;-67
2022/02/23 09:42:37;;;;;;;;;25.00;22.25;;;;;10.49;83.57;101883.59;4936415;28;45396;-66
2022/02/23 09:45:07;;;;;;;;;30.75;23.00;;;;;10.60;82.84;101883.41;4934878;28;45744;-70
2022/02/23 09:47:32;;;;;;;;;31.25;24.75;;;;;10.68;82.43;101891.13;4935693;28;45411;-63
2022/02/23 09:50:01;;;;;;;;;29.75;20.25;;;;;10.75;82.89;101874.31;4936186;28;45275;-63
2022/02/23 09:52:26;;;;;;;;;20.75;16.50;;;;;10.79;82.14;101869.88;4939006;28;45333;-60
2022/02/23 09:54:57;;;;;;;;;18.75;15.25;;;;;10.96;81.10;101880.03;4953970;28;45270;-65
2022/02/23 09:57:23;;;;;;;;;19.50;16.25;;;;;11.03;80.56;101867.63;4937795;28;45353;-66
2022/02/23 09:59:48;;;;;;;;;20.75;14.00;;;;;11.00;79.56;101865.06;4938960;28;45418;-71
2022/02/23 10:02:15;;;;;;;;;18.25;14.50;;;;;10.93;79.88;101859.94;4939211;28;45357;-72
2022/02/23 10:04:41;;;;;;;;;22.25;16.50;;;;;11.01;80.44;101864.16;4938123;28;45579;-68
2022/02/23 10:07:08;;;;;;;;;26.75;16.00;;;;;11.09;79.95;101859.59;4938980;28;46342;-67
2022/02/23 10:09:52;;;;;;;;;16.00;13.25;;;;;11.15;78.21;101848.06;4939284;28;45403;-65
2022/02/23 10:12:27;;;;;;;;;13.50;12.75;;;;;11.21;78.65;101842.66;4939951;28;45448;-71
2022/02/23 10:15:17;;;;;;;;;15.75;12.75;;;;;11.38;78.50;101842.25;4940087;28;45331;-69
2022/02/23 10:17:47;;;;;;;;;16.50;14.25;;;;;11.57;78.02;101855.00;4939109;28;45432;-64
2022/02/23 10:20:32;;;;;;;;;15.75;13.00;;;;;11.71;76.90;101858.19;4937687;28;45571;-65
2022/02/23 10:23:05;;;;;;;;;20.50;10.75;;;;;11.82;75.71;101856.16;4939101;28;45388;-68
2022/02/23 10:25:35;;;;;;;;;18.00;11.25;;;;;11.95;75.82;101850.56;4939157;28;45215;-63
2022/02/23 10:28:18;;;;;;;;;23.00;12.75;;;;;12.06;74.34;101847.66;4937479;28;48324;-66
2022/02/23 10:30:55;;;;;;;;;14.00;10.25;;;;;12.11;73.70;101841.38;4938406;28;45442;-68
2022/02/23 10:33:22;;;;;;;;;8.75;8.75;;;;;12.21;73.10;101841.13;4938854;28;45331;-63
2022/02/23 10:35:52;;;;;;;;;17.00;8.25;;;;;12.27;71.17;101840.97;4937403;28;45303;-65
2022/02/23 10:38:30;;;;;;;;;14.00;7.75;;;;;12.26;70.66;101849.78;4938210;28;45473;-62
2022/02/23 10:41:02;;;;;;;;;7.75;7.00;;;;;12.25;69.91;101843.66;4938574;28;45410;-69
2022/02/23 10:43:34;;;;;;;;;8.75;5.50;;;;;12.33;68.09;101845.22;4937243;28;45455;-68
2022/02/23 10:46:11;;;;;;;;;11.00;7.25;;;;;12.40;69.08;101839.72;4937588;28;45260;-71
2022/02/23 10:48:42;;;;;;;;;10.75;7.25;;;;;12.46;68.80;101838.69;4938449;28;45350;-69
2022/02/23 10:51:16;;;;;;;;;8.25;6.25;;;;;12.49;67.13;101837.72;4938289;28;45280;-69
2022/02/23 10:53:42;;;;;;;;;9.00;8.00;;;;;12.39;68.13;101829.22;4938433;28;45554;-67
2022/02/23 10:56:24;;;;;;;;;6.25;6.00;;;;;12.39;66.39;101831.88;4937117;28;45371;-73
2022/02/23 10:59:15;;;;;;;;;9.00;4.00;;;;;12.24;67.00;101818.19;4936429;28;46165;-74
2022/02/23 11:01:43;;;;;;;;;8.00;5.00;;;;;12.35;66.68;101825.78;4938044;28;45306;-66
2022/02/23 11:04:09;;;;;;;;;10.75;5.00;;;;;12.42;66.87;101826.50;4937696;28;45370;-64
2022/02/23 11:06:36;;;;;;;;;8.75;8.75;;;;;12.40;66.49;101821.25;4938646;28;45368;-66
2022/02/23 11:09:04;;;;;;;;;8.25;6.50;;;;;12.40;65.93;101820.41;4938604;28;45553;-65
2022/02/23 11:11:30;;;;;;;;;9.25;6.00;;;;;12.41;64.65;101820.34;4938298;28;45212;-74
2022/02/23 11:13:57;;;;;;;;;9.25;5.75;;;;;12.41;64.01;101825.63;4937371;28;45240;-74
2022/02/23 11:16:24;;;;;;;;;9.75;5.00;;;;;12.42;64.59;101824.72;4937621;28;45497;-74
2022/02/23 11:18:49;;;;;;;;;15.25;13.25;;;;;12.52;65.22;101830.59;4938510;28;46292;-72
2022/02/23 11:21:18;;;;;;;;;5.75;3.00;;;;;12.58;63.45;101824.28;4938413;28;45380;-74
2022/02/23 11:23:46;;;;;;;;;10.50;5.75;;;;;12.63;63.18;101825.00;4939099;28;45275;-72